ENSD

Sandane , Anda Airport

Sandane, Norway
METAR ENSD 191820Z 15005KT 100V180 9999 -RA VV062 12/09 Q0985 RMK WIND 1138FT VRB15G26KT
Observed Flight Rules
Sep-19 @ 18:20 UTC (26 minutes ago) Instrument Flight Rules
Wind Visibility Clouds Conditions
150° at 5 knots 10,000+ meters
  • Vertical visibility at 6,200' AGL
  • Light Rain
Temperatures Readings
Current 12°C / 54°F
Dewpoint 9°C / 48°F
Humidity 82%
Altimeter 29.08" Hg
Pressure 985 hPa
Elevation 60
METAR ENSD 191820Z 15005KT 100V180 9999 -RA VV062 12/09 Q0985 RMK WIND 1138FT VRB15G26KT
Observed Flight Rules
Sep-19 @ 18:20 UTC
(26 minutes ago)
LIFR
Wind Visibility
150° at 5 knots 10,000+ meters
Clouds
  • Vertical visibility at 6,200' AGL
Conditions
  • Light Rain
Temperature Dewpoint
12°C / 54°F 9°C / 48°F
Humidity Altimeter Pressure
82% 29.08" Hg 985 hPa